Time;durP1;ratioP1;P1;durP2;ratioP2;P2;SDS_P1;SDS_P2;PMS_P1;PMS_P2;Temp;Humidity;BMP_temperature;BMP_pressure;BME280_temperature;BME280_humidity;BME280_pressure;Samples;Min_cycle;Max_cycle;Signal;HPM_P1;HPM_P2
2021/04/26 00:00:42;;;;;;;4.18;0.00;;;3.80;99.90;;;;;;5098352;22;20246;-74
2021/04/26 00:03:08;;;;;;;3.28;0.00;;;3.70;99.90;;;;;;5098767;22;20113;-72
2021/04/26 00:05:33;;;;;;;3.35;0.00;;;3.70;99.90;;;;;;5094737;28;20077;-74
2021/04/26 00:07:59;;;;;;;5.35;0.52;;;3.70;99.90;;;;;;5079338;28;20434;-73
2021/04/26 00:10:25;;;;;;;4.65;0.10;;;3.70;99.90;;;;;;5094628;28;20045;-73
2021/04/26 00:12:51;;;;;;;1.98;0.10;;;3.70;99.90;;;;;;5076627;28;20026;-73
2021/04/26 00:15:20;;;;;;;3.50;0.43;;;3.70;99.90;;;;;;5094815;28;20046;-73
2021/04/26 00:17:47;;;;;;;5.28;0.25;;;3.60;99.90;;;;;;5094530;28;20103;-73
2021/04/26 00:20:14;;;;;;;2.97;0.10;;;3.60;99.90;;;;;;5076515;28;20034;-74
2021/04/26 00:22:40;;;;;;;4.15;0.00;;;3.50;99.90;;;;;;5094393;28;20028;-74
2021/04/26 00:25:07;;;;;;;1.13;0.17;;;3.50;99.90;;;;;;5094452;28;20028;-73
2021/04/26 00:27:37;;;;;;;1.88;0.20;;;3.50;99.90;;;;;;5094781;28;20403;-76
2021/04/26 00:30:05;;;;;;;2.97;0.00;;;3.40;99.90;;;;;;5110122;22;20067;-73
2021/04/26 00:32:31;;;;;;;7.07;0.35;;;3.40;99.90;;;;;;5054374;28;20029;-74
2021/04/26 00:34:56;;;;;;;5.38;0.20;;;3.40;99.90;;;;;;5054482;28;20147;-75
2021/04/26 00:37:22;;;;;;;4.13;0.10;;;3.30;99.90;;;;;;5035765;28;20085;-74
2021/04/26 00:39:47;;;;;;;3.72;0.20;;;3.30;99.90;;;;;;5054724;28;20036;-74
2021/04/26 00:42:13;;;;;;;6.40;0.00;;;3.20;99.90;;;;;;5054529;28;20044;-74
2021/04/26 00:44:39;;;;;;;1.60;0.00;;;3.20;99.90;;;;;;5037160;28;20025;-72
2021/04/26 00:47:04;;;;;;;2.30;0.00;;;3.20;99.90;;;;;;5077357;22;20039;-72
2021/04/26 00:49:30;;;;;;;2.92;0.10;;;3.20;99.90;;;;;;5063325;28;20102;-73
2021/04/26 00:51:55;;;;;;;5.63;0.10;;;3.20;99.90;;;;;;5085814;22;20559;-73
2021/04/26 00:54:21;;;;;;;2.80;0.10;;;3.20;99.90;;;;;;5073989;28;20021;-76
2021/04/26 00:56:46;;;;;;;2.72;0.10;;;3.20;99.90;;;;;;5074169;28;20091;-73
2021/04/26 00:59:13;;;;;;;4.68;0.20;;;3.10;99.90;;;;;;5073462;28;20032;-73
2021/04/26 01:01:38;;;;;;;3.28;0.00;;;3.00;99.90;;;;;;5074802;28;20029;-73
2021/04/26 01:04:04;;;;;;;7.18;0.55;;;3.00;99.90;;;;;;5057418;28;20023;-75
2021/04/26 01:06:30;;;;;;;1.73;0.10;;;3.00;99.90;;;;;;5074992;22;20040;-73
2021/04/26 01:08:55;;;;;;;5.10;0.20;;;2.90;99.90;;;;;;5085432;28;20031;-72
2021/04/26 01:11:28;;;;;;;4.97;0.30;;;3.00;99.90;;;;;;5116484;28;20024;-72
2021/04/26 01:14:36;;;;;;;7.88;0.60;;;3.00;99.90;;;;;;5100376;28;20106;-73
2021/04/26 01:17:14;;;;;;;6.35;0.32;;;2.90;99.90;;;;;;5118937;28;20115;-73
2021/04/26 01:20:17;;;;;;;4.13;0.10;;;2.90;99.90;;;;;;5118799;28;20019;-73
2021/04/26 01:23:10;;;;;;;6.13;0.10;;;2.90;99.90;;;;;;5117966;28;20032;-73
2021/04/26 01:25:38;;;;;;;4.28;0.03;;;2.80;99.90;;;;;;5118220;28;20032;-73
2021/04/26 01:28:35;;;;;;;3.28;0.10;;;2.80;99.90;;;;;;5099668;28;20506;-73
2021/04/26 01:31:11;;;;;;;2.22;0.40;;;2.80;99.90;;;;;;5117975;28;20428;-73
2021/04/26 01:33:40;;;;;;;2.20;0.65;;;2.70;99.90;;;;;;5117733;28;20100;-73
2021/04/26 01:36:08;;;;;;;2.83;0.35;;;2.70;99.90;;;;;;5098944;28;20016;-73
2021/04/26 01:38:43;;;;;;;6.13;0.20;;;2.80;99.90;;;;;;5126903;22;21308;-74
2021/04/26 01:41:10;;;;;;;2.47;0.10;;;2.70;99.90;;;;;;5097401;28;20032;-73
2021/04/26 01:43:37;;;;;;;6.20;0.22;;;2.70;99.90;;;;;;5097756;28;20413;-74
2021/04/26 01:46:07;;;;;;;3.35;0.20;;;2.70;99.90;;;;;;5078735;28;20051;-74
2021/04/26 01:48:37;;;;;;;2.10;0.00;;;2.70;99.90;;;;;;5078275;28;20024;-77
2021/04/26 01:51:04;;;;;;;5.93;0.13;;;2.70;99.90;;;;;;5096640;28;20031;-73
2021/04/26 01:53:30;;;;;;;1.35;0.10;;;2.70;99.90;;;;;;5096752;28;20034;-74
2021/04/26 01:56:02;;;;;;;2.97;0.10;;;2.70;99.90;;;;;;5078219;28;20477;-74
2021/04/26 01:58:30;;;;;;;6.15;0.03;;;2.60;99.90;;;;;;5133153;23;20037;-75
2021/04/26 02:01:00;;;;;;;3.65;0.10;;;2.40;99.90;;;;;;5069868;22;20056;-74
2021/04/26 02:03:27;;;;;;;4.93;0.43;;;2.50;99.90;;;;;;5041489;28;20504;-74
2021/04/26 02:05:55;;;;;;;4.60;0.25;;;2.50;99.90;;;;;;5089547;22;20396;-74
2021/04/26 02:08:21;;;;;;;3.03;0.10;;;2.50;99.90;;;;;;5076378;28;20024;-74
2021/04/26 02:10:48;;;;;;;4.57;0.10;;;2.50;99.90;;;;;;5078554;28;20258;-74
2021/04/26 02:13:19;;;;;;;4.05;0.00;;;2.50;99.90;;;;;;5078560;28;20020;-74
2021/04/26 02:15:45;;;;;;;5.45;0.10;;;2.40;99.90;;;;;;5077474;28;20024;-74
2021/04/26 02:18:11;;;;;;;3.03;0.13;;;2.40;99.90;;;;;;5108725;22;20040;-74
2021/04/26 02:20:37;;;;;;;2.75;0.28;;;2.40;99.90;;;;;;5064544;22;20049;-73
2021/04/26 02:23:03;;;;;;;1.55;0.00;;;2.40;99.90;;;;;;5055398;28;20024;-74
2021/04/26 02:25:30;;;;;;;8.02;1.20;;;2.30;99.90;;;;;;5056532;28;20031;-73
2021/04/26 02:27:55;;;;;;;5.55;0.45;;;2.30;99.90;;;;;;5056290;28;20446;-73
2021/04/26 02:30:22;;;;;;;4.13;0.70;;;2.30;99.90;;;;;;5055593;28;20020;-73
2021/04/26 02:32:56;;;;;;;2.40;0.10;;;2.30;99.90;;;;;;5055964;28;20036;-73
2021/04/26 02:35:45;;;;;;;1.50;0.35;;;2.20;99.90;;;;;;5055407;28;20025;-73
2021/04/26 02:38:24;;;;;;;;;;;2.20;99.90;;;;;;5038332;28;20037;-75
2021/04/26 02:40:56;;;;;;;2.63;0.55;;;2.20;99.90;;;;;;5057070;28;20356;-74
2021/04/26 02:43:24;;;;;;;6.18;0.22;;;2.10;99.90;;;;;;5070487;23;20021;-75
2021/04/26 02:45:52;;;;;;;3.53;0.10;;;6.00;99.90;;;;;;5075234;28;20511;-74
2021/04/26 02:48:19;;;;;;;1.67;0.10;;;1.40;99.90;;;;;;5089681;28;20016;-74
2021/04/26 02:50:45;;;;;;;8.25;0.65;;;1.90;99.90;;;;;;5095796;22;20056;-76
2021/04/26 02:53:12;;;;;;;3.40;0.30;;;2.00;99.90;;;;;;5076973;28;20036;-73
2021/04/26 02:55:40;;;;;;;0.65;0.17;;;2.00;99.90;;;;;;5107972;28;20023;-74
2021/04/26 02:58:06;;;;;;;1.42;0.20;;;2.00;99.90;;;;;;5116622;28;20027;-76
2021/04/26 03:00:33;;;;;;;9.13;0.10;;;2.00;99.90;;;;;;5098709;28;20503;-74
2021/04/26 03:03:00;;;;;;;6.45;0.70;;;2.00;99.90;;;;;;5098059;28;20030;-74
2021/04/26 03:05:26;;;;;;;3.92;0.63;;;1.90;99.90;;;;;;5105261;22;20071;-74
2021/04/26 03:07:52;;;;;;;5.32;0.60;;;5.30;99.90;;;;;;5078640;22;20041;-74
2021/04/26 03:12:50;;;;;;;3.72;0.20;;;1.90;99.90;;;;;;5073071;28;20051;-74
2021/04/26 03:15:20;;;;;;;6.30;0.13;;;1.80;99.90;;;;;;5070620;22;20506;-74
2021/04/26 03:17:46;;;;;;;3.30;0.08;;;1.60;99.90;;;;;;5094900;28;20032;-74
2021/04/26 03:20:15;;;;;;;4.13;0.63;;;1.90;99.90;;;;;;5094658;28;20020;-74
2021/04/26 03:22:43;;;;;;;3.08;0.10;;;1.90;99.90;;;;;;5076440;28;20110;-76
2021/04/26 03:25:12;;;;;;;3.00;0.10;;;2.00;99.90;;;;;;5094396;28;20507;-73
2021/04/26 03:27:41;;;;;;;3.03;0.10;;;2.00;99.90;;;;;;5094432;28;20102;-74
2021/04/26 03:30:09;;;;;;;5.05;0.00;;;2.00;99.90;;;;;;5094570;28;20059;-73
2021/04/26 03:32:35;;;;;;;0.70;0.00;;;2.00;99.90;;;;;;5095062;28;20038;-74
2021/04/26 03:35:02;;;;;;;8.43;0.43;;;1.90;99.90;;;;;;5093457;28;20024;-73
2021/04/26 03:37:29;;;;;;;1.02;0.17;;;2.00;99.90;;;;;;5076062;28;20024;-74
2021/04/26 03:39:55;;;;;;;3.60;0.45;;;1.90;99.90;;;;;;5094054;28;20035;-74
2021/04/26 03:42:20;;;;;;;1.88;0.13;;;1.90;99.90;;;;;;5075436;28;20021;-74
2021/04/26 03:44:48;;;;;;;3.13;0.57;;;1.90;99.90;;;;;;5076025;28;20405;-73
2021/04/26 03:47:14;;;;;;;2.10;0.08;;;1.90;99.90;;;;;;5076247;28;20489;-73
2021/04/26 03:49:39;;;;;;;23.15;2.08;;;1.90;99.90;;;;;;5075653;28;20046;-74
2021/04/26 03:52:06;;;;;;;1.63;0.43;;;1.80;99.90;;;;;;5075961;28;20024;-74
2021/04/26 03:54:32;;;;;;;1.08;0.08;;;1.80;99.90;;;;;;5076398;28;20545;-73
2021/04/26 03:56:58;;;;;;;6.60;0.70;;;1.80;99.90;;;;;;5078924;23;20127;-78
2021/04/26 03:59:24;;;;;;;2.67;0.00;;;1.80;99.90;;;;;;5074490;28;20024;-74
2021/04/26 04:01:50;;;;;;;3.67;0.20;;;1.70;99.90;;;;;;5074435;28;20050;-73
2021/04/26 04:04:15;;;;;;;5.93;0.35;;;1.70;99.90;;;;;;5073318;28;20032;-77
2021/04/26 04:06:41;;;;;;;4.07;0.22;;;1.70;99.90;;;;;;5055846;28;20443;-74
2021/04/26 04:09:07;;;;;;;3.92;0.20;;;1.60;99.90;;;;;;5056471;28;20021;-75
2021/04/26 04:11:34;;;;;;;4.32;0.43;;;1.60;99.90;;;;;;5079779;23;20039;-73
2021/04/26 04:14:00;;;;;;;5.07;0.10;;;1.60;99.90;;;;;;5075616;28;20383;-74
2021/04/26 04:16:29;;;;;;;2.67;0.32;;;1.60;99.90;;;;;;5075445;28;20048;-76
2021/04/26 04:18:55;;;;;;;4.97;0.82;;;1.60;99.90;;;;;;5094197;28;20020;-76
2021/04/26 04:21:21;;;;;;;9.98;0.85;;;1.60;99.90;;;;;;5094334;28;20027;-76
2021/04/26 04:23:47;;;;;;;6.43;0.80;;;1.60;99.90;;;;;;5093503;28;20032;-75
2021/04/26 04:26:12;;;;;;;0.85;0.10;;;1.60;99.90;;;;;;5093931;28;20039;-75
2021/04/26 04:28:38;;;;;;;6.05;1.08;;;1.60;99.90;;;;;;5093897;28;20484;-75
2021/04/26 04:31:04;;;;;;;4.38;0.00;;;1.50;99.90;;;;;;5075019;28;20024;-75
2021/04/26 04:33:31;;;;;;;3.13;0.10;;;1.50;99.90;;;;;;5075165;28;20019;-75
2021/04/26 04:35:57;;;;;;;2.53;0.10;;;1.50;99.90;;;;;;5075375;28;20028;-74
2021/04/26 04:38:25;;;;;;;1.85;0.20;;;1.50;99.90;;;;;;5074836;28;20036;-75
2021/04/26 04:40:50;;;;;;;2.08;0.30;;;1.60;99.90;;;;;;5075237;28;20090;-75
2021/04/26 04:43:16;;;;;;;4.60;0.30;;;1.60;99.90;;;;;;5092943;28;20024;-73
2021/04/26 04:45:42;;;;;;;6.70;1.10;;;1.50;99.90;;;;;;5071482;23;20132;-74
2021/04/26 04:48:07;;;;;;;6.97;0.10;;;1.60;99.90;;;;;;5039234;28;20017;-76
2021/04/26 04:50:33;;;;;;;2.80;0.60;;;1.60;99.90;;;;;;5057651;28;20021;-75
2021/04/26 04:52:59;;;;;;;5.13;0.52;;;1.70;99.90;;;;;;5057220;28;20061;-73
2021/04/26 04:55:24;;;;;;;3.72;0.20;;;1.70;99.90;;;;;;5058514;28;20470;-74
2021/04/26 04:57:50;;;;;;;5.82;0.82;;;1.80;99.90;;;;;;5040121;28;20020;-75
2021/04/26 05:00:19;;;;;;;3.80;0.82;;;1.80;99.90;;;;;;5057089;28;20021;-73
2021/04/26 05:02:44;;;;;;;5.55;0.93;;;1.90;99.90;;;;;;5057610;28;20060;-74
2021/04/26 05:05:10;;;;;;;6.68;1.77;;;2.00;99.90;;;;;;5057612;28;20029;-73
2021/04/26 05:07:36;;;;;;;5.85;0.13;;;2.00;99.90;;;;;;5057230;28;20215;-74
2021/04/26 05:10:02;;;;;;;4.15;0.65;;;2.10;99.90;;;;;;5056684;28;20561;-74
2021/04/26 05:12:28;;;;;;;3.35;0.85;;;2.10;99.90;;;;;;5057103;28;20116;-73
2021/04/26 05:14:53;;;;;;;2.33;0.10;;;2.20;99.90;;;;;;5056720;28;20167;-73
2021/04/26 05:17:19;;;;;;;2.67;0.30;;;2.20;99.90;;;;;;5056812;28;20021;-73
2021/04/26 05:19:44;;;;;;;2.70;0.52;;;2.30;99.90;;;;;;5056618;28;20029;-73
2021/04/26 05:22:10;;;;;;;3.25;0.57;;;2.40;99.90;;;;;;5057614;28;20462;-73
2021/04/26 05:24:37;;;;;;;1.10;0.10;;;2.50;99.90;;;;;;5056445;28;20454;-73
2021/04/26 05:27:03;;;;;;;3.55;0.28;;;2.60;99.90;;;;;;5056887;28;20421;-73
2021/04/26 05:29:31;;;;;;;2.35;0.65;;;2.70;99.90;;;;;;5056532;28;20367;-73
2021/04/26 05:31:57;;;;;;;3.97;0.28;;;2.80;99.90;;;;;;5056384;28;20052;-73
2021/04/26 05:34:23;;;;;;;6.35;0.20;;;2.90;99.90;;;;;;5056968;28;20025;-73
2021/04/26 05:36:48;;;;;;;0.82;0.10;;;2.90;99.90;;;;;;5038072;28;20017;-73
2021/04/26 05:39:14;;;;;;;3.28;0.30;;;3.00;99.90;;;;;;5056306;28;20029;-73
2021/04/26 05:41:39;;;;;;;4.60;0.20;;;3.20;99.90;;;;;;5037974;28;20052;-73
2021/04/26 05:44:05;;;;;;;0.40;0.10;;;3.30;99.90;;;;;;5056259;28;20384;-73
2021/04/26 05:46:31;;;;;;;2.10;0.28;;;3.50;99.90;;;;;;5021856;28;20490;-73
2021/04/26 05:48:56;;;;;;;2.63;0.20;;;3.60;99.90;;;;;;5035603;28;20036;-73
2021/04/26 05:51:23;;;;;;;2.47;0.03;;;3.70;99.90;;;;;;5018220;28;20033;-73
2021/04/26 05:53:48;;;;;;;3.38;0.20;;;3.90;99.90;;;;;;5035521;28;20014;-74
2021/04/26 05:56:14;;;;;;;5.25;0.22;;;4.00;99.90;;;;;;5018352;28;20025;-75
2021/04/26 05:58:39;;;;;;;5.13;0.28;;;4.10;99.90;;;;;;5015586;28;20033;-74
2021/04/26 06:01:05;;;;;;;2.03;0.38;;;4.20;99.90;;;;;;5035214;28;20030;-75
2021/04/26 06:03:31;;;;;;;1.52;0.03;;;4.30;99.90;;;;;;5018112;28;20068;-75
2021/04/26 06:06:43;;;;;;;3.50;0.55;;;4.40;99.90;;;;;;5018112;28;20501;-78
2021/04/26 06:09:09;;;;;;;4.20;0.10;;;4.50;99.90;;;;;;5017892;28;20045;-75
2021/04/26 06:11:34;;;;;;;10.48;0.70;;;4.70;99.90;;;;;;5036063;28;20168;-74
2021/04/26 06:14:00;;;;;;;3.20;0.00;;;4.80;99.90;;;;;;5036016;28;20421;-74
2021/04/26 06:16:25;;;;;;;8.93;0.75;;;4.90;99.90;;;;;;5095791;23;20436;-78
2021/04/26 06:18:51;;;;;;;3.03;0.00;;;5.00;99.90;;;;;;5100198;22;20235;-77
2021/04/26 06:21:16;;;;;;;4.30;0.08;;;5.10;99.90;;;;;;5075208;28;20024;-74
2021/04/26 06:23:42;;;;;;;5.80;0.32;;;5.20;99.90;;;;;;5069056;28;20010;-75
2021/04/26 06:26:07;;;;;;;7.82;0.32;;;5.30;99.90;;;;;;5065214;22;20043;-74
2021/04/26 06:28:33;;;;;;;2.55;0.00;;;5.40;99.90;;;;;;5057069;28;20033;-74
2021/04/26 06:30:59;;;;;;;3.03;0.10;;;5.50;99.90;;;;;;5075424;28;20024;-76
2021/04/26 06:33:26;;;;;;;5.80;0.60;;;5.70;99.90;;;;;;5075392;28;20115;-75
2021/04/26 06:35:53;;;;;;;2.40;0.30;;;5.80;99.90;;;;;;5093333;22;20044;-76
2021/04/26 06:38:20;;;;;;;3.65;0.28;;;5.90;99.90;;;;;;5095276;28;20038;-76
2021/04/26 06:40:47;;;;;;;3.20;0.10;;;6.00;99.90;;;;;;5100898;28;20032;-75
2021/04/26 06:43:13;;;;;;;2.53;0.10;;;6.20;99.90;;;;;;5080539;28;20401;-76
2021/04/26 06:45:40;;;;;;;2.70;0.15;;;6.30;99.90;;;;;;5076631;28;20022;-74
2021/04/26 06:48:06;;;;;;;7.68;0.68;;;6.40;99.90;;;;;;5094901;28;20032;-74
2021/04/26 06:50:32;;;;;;;4.85;0.10;;;6.40;99.90;;;;;;5076714;28;20024;-74
2021/04/26 06:52:58;;;;;;;3.40;0.43;;;6.50;99.90;;;;;;5077728;28;20017;-76
2021/04/26 06:55:24;;;;;;;0.35;0.00;;;6.70;99.90;;;;;;5094788;28;20032;-76
2021/04/26 06:57:51;;;;;;;4.30;0.10;;;6.80;99.90;;;;;;5077071;28;20032;-74
2021/04/26 07:00:18;;;;;;;3.17;0.57;;;6.80;99.90;;;;;;5095439;28;20032;-74
2021/04/26 07:02:43;;;;;;;1.40;0.10;;;6.90;99.90;;;;;;5095262;28;20039;-74
2021/04/26 07:05:10;;;;;;;2.05;0.15;;;7.00;99.90;;;;;;5077628;28;20031;-74
2021/04/26 07:07:36;;;;;;;5.55;0.10;;;7.10;99.90;;;;;;5107946;23;20484;-75
2021/04/26 07:10:06;;;;;;;2.20;0.00;;;7.20;99.90;;;;;;5094757;28;20525;-74
2021/04/26 07:12:32;;;;;;;3.92;0.00;;;7.20;99.90;;;;;;5094074;28;20024;-77
2021/04/26 07:14:59;;;;;;;4.53;0.10;;;7.20;99.90;;;;;;5093943;28;20476;-75
2021/04/26 07:17:24;;;;;;;2.22;0.05;;;7.30;99.50;;;;;;5094900;28;20028;-77
2021/04/26 07:19:50;;;;;;;0.88;0.22;;;7.40;98.80;;;;;;5093658;28;20023;-77
2021/04/26 07:22:16;;;;;;;1.65;0.00;;;7.50;98.00;;;;;;5094368;28;20093;-77
2021/04/26 07:24:42;;;;;;;2.58;0.40;;;7.50;97.40;;;;;;5085873;28;20024;-75
2021/04/26 07:27:08;;;;;;;1.63;0.00;;;7.60;96.50;;;;;;5073953;28;20032;-76
2021/04/26 07:29:34;;;;;;;2.30;0.00;;;7.80;95.80;;;;;;5111017;28;20047;-75
2021/04/26 07:31:59;;;;;;;5.03;0.57;;;7.90;95.50;;;;;;5093048;28;20077;-76
2021/04/26 07:34:25;;;;;;;1.92;0.10;;;8.00;94.80;;;;;;5094470;28;20487;-74
2021/04/26 07:36:51;;;;;;;4.28;0.00;;;8.00;93.20;;;;;;5092623;28;20016;-76
2021/04/26 07:39:18;;;;;;;3.10;0.30;;;8.10;92.60;;;;;;5093625;28;20035;-75
2021/04/26 07:41:44;;;;;;;1.90;0.20;;;8.20;93.20;;;;;;5094528;28;20039;-75
2021/04/26 07:44:10;;;;;;;6.22;0.20;;;8.40;90.90;;;;;;5095348;28;20485;-73
2021/04/26 07:46:35;;;;;;;1.05;0.10;;;8.40;87.10;;;;;;5094375;28;20457;-75
2021/04/26 07:49:01;;;;;;;1.63;0.00;;;8.50;87.60;;;;;;5092348;28;20081;-74
2021/04/26 07:51:27;;;;;;;2.45;0.00;;;8.60;84.90;;;;;;5094644;28;20046;-75
2021/04/26 07:53:52;;;;;;;4.57;0.00;;;8.60;80.70;;;;;;5111391;22;20035;-74
2021/04/26 07:56:18;;;;;;;1.45;0.00;;;8.70;79.70;;;;;;5056184;28;20377;-75
2021/04/26 07:58:44;;;;;;;3.20;0.15;;;8.90;80.50;;;;;;5074885;28;20043;-75
2021/04/26 08:01:09;;;;;;;1.35;0.00;;;9.00;76.90;;;;;;5073857;28;20087;-76
2021/04/26 08:03:35;;;;;;;2.38;0.00;;;9.10;77.40;;;;;;5056002;28;20046;-74
2021/04/26 08:06:00;;;;;;;2.75;0.10;;;9.10;75.00;;;;;;5074018;28;20082;-75
2021/04/26 08:08:27;;;;;;;0.38;0.10;;;9.20;71.70;;;;;;5073496;28;20033;-75
2021/04/26 08:10:53;;;;;;;0.68;0.00;;;9.30;72.70;;;;;;5073189;28;20032;-75
2021/04/26 08:13:19;;;;;;;1.55;0.03;;;9.40;68.30;;;;;;5073468;28;20016;-74
2021/04/26 08:15:44;;;;;;;1.40;0.00;;;9.40;66.50;;;;;;5073358;28;20028;-74
2021/04/26 08:18:11;;;;;;;0.95;0.00;;;9.50;68.30;;;;;;5055619;28;20029;-77
2021/04/26 08:20:37;;;;;;;1.40;0.00;;;9.60;67.90;;;;;;5074143;28;20048;-74
2021/04/26 08:23:04;;;;;;;0.10;0.00;;;9.80;68.80;;;;;;5078714;28;20405;-76
2021/04/26 08:25:30;;;;;;;1.20;0.00;;;9.80;65.50;;;;;;5059847;28;20377;-75
2021/04/26 08:27:56;;;;;;;2.92;0.00;;;9.90;66.40;;;;;;5078476;28;20020;-74
2021/04/26 08:30:22;;;;;;;2.35;0.08;;;10.10;65.60;;;;;;5095256;22;20155;-75
2021/04/26 08:32:48;;;;;;;1.23;0.00;;;10.20;65.70;;;;;;5077815;28;20020;-74
2021/04/26 08:35:13;;;;;;;0.65;0.00;;;10.20;65.00;;;;;;5077870;28;20020;-74
2021/04/26 08:37:39;;;;;;;1.67;0.00;;;10.30;63.90;;;;;;5074381;28;20432;-75
2021/04/26 08:40:06;;;;;;;3.58;0.20;;;10.40;64.40;;;;;;5091579;23;20040;-74
2021/04/26 08:42:31;;;;;;;6.15;0.10;;;10.50;61.30;;;;;;5078606;28;20028;-74
2021/04/26 08:44:57;;;;;;;1.55;0.00;;;10.50;61.40;;;;;;5079856;28;20066;-74
2021/04/26 08:47:25;;;;;;;0.55;0.00;;;10.60;60.00;;;;;;5098255;28;20024;-76
2021/04/26 08:49:54;;;;;;;2.28;0.30;;;10.80;58.20;;;;;;5098161;28;20028;-75
2021/04/26 08:52:20;;;;;;;2.10;0.00;;;10.70;57.40;;;;;;5115066;28;20031;-74
2021/04/26 08:54:45;;;;;;;1.10;0.00;;;10.70;58.70;;;;;;5118331;28;20024;-74
2021/04/26 08:57:11;;;;;;;0.98;0.00;;;10.80;59.20;;;;;;5117932;28;20511;-75
2021/04/26 08:59:42;;;;;;;1.15;0.20;;;10.80;59.50;;;;;;5109865;22;20362;-75
2021/04/26 09:02:08;;;;;;;1.98;0.10;;;10.90;60.30;;;;;;5110669;22;20515;-74
2021/04/26 09:04:35;;;;;;;1.75;0.00;;;10.90;59.20;;;;;;5097413;28;20020;-74
2021/04/26 09:07:03;;;;;;;4.85;0.30;;;10.90;60.20;;;;;;5092244;28;20118;-75
2021/04/26 09:09:33;;;;;;;0.88;0.00;;;11.10;60.20;;;;;;5096118;28;20191;-76
2021/04/26 09:11:58;;;;;;;5.90;0.38;;;11.20;58.80;;;;;;5095782;28;20441;-75
2021/04/26 09:14:36;;;;;;;2.30;0.32;;;11.30;58.10;;;;;;5097427;28;20051;-77
2021/04/26 09:17:44;;;;;;;1.42;0.10;;;11.30;57.10;;;;;;5094355;28;20047;-75
2021/04/26 09:20:16;;;;;;;3.72;0.10;;;11.30;55.30;;;;;;5087498;28;20036;-74
2021/04/26 09:22:54;;;;;;;1.08;0.00;;;11.30;56.20;;;;;;5096987;28;20476;-74
2021/04/26 09:25:32;;;;;;;2.77;0.10;;;11.40;57.70;;;;;;5108387;22;20449;-74
2021/04/26 09:28:12;;;;;;;1.52;0.10;;;11.50;56.90;;;;;;5060727;28;20033;-74
2021/04/26 09:30:52;;;;;;;0.95;0.10;;;11.60;56.60;;;;;;5039623;28;20025;-74
2021/04/26 09:33:23;;;;;;;1.73;0.05;;;11.70;55.50;;;;;;5038884;28;20063;-76
2021/04/26 09:36:22;;;;;;;4.90;0.10;;;11.70;57.40;;;;;;5056683;28;20036;-76
2021/04/26 09:38:53;;;;;;;2.15;0.30;;;11.80;56.70;;;;;;5056128;28;20017;-75
2021/04/26 09:41:30;;;;;;;1.95;0.10;;;11.80;56.00;;;;;;5056907;28;20111;-76
2021/04/26 09:44:02;;;;;;;1.00;0.00;;;11.70;54.80;;;;;;5056248;28;20536;-76
2021/04/26 09:46:50;;;;;;;3.30;0.00;;;11.80;57.80;;;;;;5056400;28;20033;-77
2021/04/26 09:49:17;;;;;;;0.77;0.10;;;11.90;56.70;;;;;;5038542;28;20112;-77
2021/04/26 09:51:46;;;;;;;3.38;0.10;;;12.10;56.10;;;;;;5038381;28;20079;-77
2021/04/26 09:54:11;;;;;;;3.47;0.00;;;12.30;56.60;;;;;;5056468;28;20028;-77
2021/04/26 09:56:45;;;;;;;5.80;0.85;;;12.40;55.10;;;;;;5054074;28;20024;-77
2021/04/26 09:59:14;;;;;;;2.00;0.10;;;13.50;53.30;;;;;;5056146;28;20021;-76
2021/04/26 10:01:40;;;;;;;0.95;0.00;;;11.90;53.30;;;;;;5056344;28;20025;-77
2021/04/26 10:04:08;;;;;;;0.28;0.00;;;11.90;56.20;;;;;;5056234;28;20029;-77
2021/04/26 10:06:34;;;;;;;4.10;0.40;;;12.10;55.60;;;;;;5037996;28;20032;-77
2021/04/26 10:09:02;;;;;;;2.63;0.20;;;12.40;55.20;;;;;;5056192;28;20021;-77
2021/04/26 10:11:31;;;;;;;3.75;0.20;;;12.60;55.50;;;;;;5039469;28;20039;-76
2021/04/26 10:14:17;;;;;;;1.38;0.15;;;12.90;54.20;;;;;;5055847;28;20410;-76
2021/04/26 10:16:51;;;;;;;1.75;0.68;;;13.10;53.60;;;;;;5056177;28;20045;-77
2021/04/26 10:19:17;;;;;;;1.58;0.17;;;13.30;54.40;;;;;;5056473;28;20031;-76
2021/04/26 10:21:54;;;;;;;1.95;0.10;;;13.50;51.10;;;;;;5057666;28;20037;-78
2021/04/26 10:24:23;;;;;;;0.40;0.17;;;13.50;50.70;;;;;;5056399;28;20029;-78
2021/04/26 10:26:50;;;;;;;0.82;0.03;;;13.50;50.70;;;;;;5056506;28;20032;-76
2021/04/26 10:29:26;;;;;;;0.00;0.00;;;13.70;50.90;;;;;;5056457;28;20063;-76
2021/04/26 10:32:02;;;;;;;0.55;0.10;;;13.90;51.30;;;;;;5083163;22;20041;-78
2021/04/26 10:34:34;;;;;;;2.08;0.10;;;14.00;49.10;;;;;;5058412;28;20042;-77
2021/04/26 10:37:03;;;;;;;3.67;0.10;;;14.00;50.80;;;;;;5057633;28;20024;-78
2021/04/26 10:39:33;;;;;;;4.88;0.45;;;14.10;49.40;;;;;;5110522;22;20462;-74
2021/04/26 10:42:08;;;;;;;57.50;2.35;;;14.30;49.20;;;;;;5075107;28;20027;-74
2021/04/26 10:44:39;;;;;;;4.68;0.15;;;14.40;48.50;;;;;;5074353;28;20020;-74
2021/04/26 10:47:16;;;;;;;4.60;0.10;;;14.40;45.60;;;;;;5074674;28;20017;-75
2021/04/26 10:49:42;;;;;;;1.13;0.15;;;14.20;46.50;;;;;;5075957;28;20024;-75
2021/04/26 10:52:29;;;;;;;1.55;0.32;;;14.20;47.80;;;;;;5075643;28;20025;-78
2021/04/26 10:54:59;;;;;;;1.73;0.13;;;14.50;50.00;;;;;;5075455;28;20123;-77
2021/04/26 11:00:20;;;;;;;4.05;0.00;;;15.00;47.40;;;;;;5073694;28;20049;-77
2021/04/26 11:03:06;;;;;;;3.15;0.50;;;15.30;47.10;;;;;;5075115;28;20043;-74
2021/04/26 11:05:43;;;;;;;0.20;0.00;;;15.50;47.50;;;;;;5056055;28;20119;-75
2021/04/26 11:08:30;;;;;;;1.15;0.15;;;15.60;44.90;;;;;;5074562;28;20052;-74
2021/04/26 11:11:02;;;;;;;1.80;0.10;;;15.40;44.80;;;;;;5075449;28;20095;-75
2021/04/26 11:13:34;;;;;;;1.15;0.40;;;15.60;45.70;;;;;;5073401;28;20385;-74
2021/04/26 11:16:10;;;;;;;1.67;0.10;;;15.40;43.60;;;;;;5074898;28;20017;-78
2021/04/26 11:18:41;;;;;;;3.17;0.38;;;15.40;44.80;;;;;;5091808;28;20029;-78
2021/04/26 11:21:08;;;;;;;0.55;0.15;;;15.40;46.50;;;;;;5075682;28;20029;-78
2021/04/26 11:23:48;;;;;;;3.28;0.20;;;15.60;45.80;;;;;;5090037;28;20024;-74
2021/04/26 11:26:17;;;;;;;0.68;0.10;;;15.80;45.50;;;;;;5074749;28;20527;-76
2021/04/26 11:29:01;;;;;;;0.77;0.10;;;16.00;44.90;;;;;;5089997;28;20017;-77
2021/04/26 11:31:45;;;;;;;1.88;0.10;;;16.20;43.80;;;;;;5074190;28;20467;-76
2021/04/26 11:34:19;;;;;;;5.80;0.00;;;16.40;43.30;;;;;;5072781;28;20393;-74
2021/04/26 11:37:02;;;;;;;0.52;0.03;;;16.60;41.20;;;;;;5074411;28;20024;-77
2021/04/26 11:39:33;;;;;;;1.63;0.00;;;16.60;42.10;;;;;;5072408;28;20182;-75
2021/04/26 11:41:59;;;;;;;2.42;0.10;;;16.90;43.90;;;;;;5072785;28;20374;-75
2021/04/26 11:44:26;;;;;;;1.52;0.10;;;17.10;42.50;;;;;;5074373;28;20021;-75
2021/04/26 11:46:53;;;;;;;0.32;0.10;;;17.30;39.30;;;;;;5089862;28;20123;-74
2021/04/26 11:49:21;;;;;;;2.25;0.00;;;17.30;40.70;;;;;;5074501;28;20016;-76
2021/04/26 11:51:55;;;;;;;4.40;0.47;;;17.40;40.20;;;;;;5089589;28;20021;-77
2021/04/26 11:54:23;;;;;;;1.85;0.13;;;17.50;40.40;;;;;;5072847;28;20259;-77
2021/04/26 11:57:05;;;;;;;2.75;0.20;;;17.40;38.70;;;;;;5072951;28;20078;-77
2021/04/26 11:59:32;;;;;;;0.45;0.17;;;17.50;40.90;;;;;;5073113;28;20111;-77
2021/04/26 12:01:58;;;;;;;1.13;0.00;;;17.60;39.40;;;;;;5054054;28;20029;-77
2021/04/26 12:04:32;;;;;;;2.63;0.63;;;17.70;38.70;;;;;;5054220;28;20023;-77
2021/04/26 12:06:59;;;;;;;0.47;0.00;;;17.50;38.50;;;;;;5054200;28;20021;-78
2021/04/26 12:09:24;;;;;;;3.65;0.20;;;17.70;40.20;;;;;;5052830;28;20035;-77
2021/04/26 12:12:10;;;;;;;1.00;0.00;;;17.70;40.40;;;;;;5054994;28;20052;-78
2021/04/26 12:14:43;;;;;;;0.82;0.05;;;17.50;39.90;;;;;;5052324;28;20064;-77
2021/04/26 12:17:17;;;;;;;2.63;0.17;;;17.90;39.10;;;;;;5053436;28;20091;-77
2021/04/26 12:19:43;;;;;;;5.30;0.30;;;18.20;40.10;;;;;;5053334;28;20027;-77
2021/04/26 12:22:09;;;;;;;3.40;0.40;;;18.20;41.20;;;;;;5051908;28;20429;-76
2021/04/26 12:24:35;;;;;;;2.30;0.17;;;18.00;38.80;;;;;;5052051;28;20025;-76
2021/04/26 12:27:08;;;;;;;2.00;0.17;;;17.90;41.10;;;;;;5053747;28;20509;-75
2021/04/26 12:29:33;;;;;;;4.95;1.13;;;17.90;40.50;;;;;;5069471;28;20342;-74
2021/04/26 12:32:17;;;;;;;2.15;0.00;;;18.10;40.10;;;;;;5053662;28;20025;-76
2021/04/26 12:34:53;;;;;;;1.45;0.10;;;18.20;40.20;;;;;;5053685;28;20021;-78
2021/04/26 12:37:21;;;;;;;1.80;0.00;;;18.40;39.30;;;;;;5054988;28;20021;-77
2021/04/26 12:39:47;;;;;;;2.08;0.10;;;18.50;39.00;;;;;;5054521;28;20025;-75
2021/04/26 12:42:16;;;;;;;3.25;0.10;;;18.70;39.50;;;;;;5052923;28;20076;-76
2021/04/26 12:44:46;;;;;;;0.98;0.00;;;18.90;40.00;;;;;;5055150;28;20027;-77
2021/04/26 12:47:25;;;;;;;1.40;0.00;;;19.00;38.60;;;;;;5053976;28;20028;-77
2021/04/26 12:50:13;;;;;;;0.30;0.00;;;19.10;38.00;;;;;;5052511;28;20033;-78
2021/04/26 12:52:39;;;;;;;3.42;0.20;;;19.30;38.10;;;;;;5054935;28;20017;-75
2021/04/26 12:55:12;;;;;;;1.17;0.13;;;19.10;36.80;;;;;;5053596;28;20100;-77
2021/04/26 12:57:38;;;;;;;1.55;0.38;;;19.00;38.10;;;;;;5054891;28;20029;-76
2021/04/26 13:00:08;;;;;;;1.75;0.00;;;18.70;36.30;;;;;;5075630;28;20016;-78
2021/04/26 13:02:34;;;;;;;1.40;0.00;;;18.60;37.90;;;;;;5105440;22;20040;-76
2021/04/26 13:05:00;;;;;;;1.83;0.35;;;18.70;37.20;;;;;;5075527;28;20016;-76
2021/04/26 13:07:27;;;;;;;2.08;0.08;;;19.00;37.90;;;;;;5077033;28;20044;-75